Time;durP1;ratioP1;P1;durP2;ratioP2;P2;SDS_P1;SDS_P2;PMS_P1;PMS_P2;Temp;Humidity;BMP_temperature;BMP_pressure;BME280_temperature;BME280_humidity;BME280_pressure;Samples;Min_cycle;Max_cycle;Signal;HPM_P1;HPM_P2
2023/03/31 00:01:51;;;;;;;9.90;6.10;;;;;;;10.23;70.30;99453.52;108278;1290;22001;-80
2023/03/31 00:04:24;;;;;;;6.80;5.10;;;;;;;10.27;70.36;99448.61;108445;1290;22008;-80
2023/03/31 00:07:00;;;;;;;8.10;4.60;;;;;;;10.33;70.38;99451.81;108002;1290;22039;-81
2023/03/31 00:09:32;;;;;;;8.00;5.40;;;;;;;10.35;70.28;99447.73;108426;1280;22471;-79
2023/03/31 00:12:05;;;;;;;9.70;6.10;;;;;;;10.35;70.22;99448.23;108678;1279;23053;-78
2023/03/31 00:14:36;;;;;;;5.40;4.60;;;;;;;10.35;70.34;99448.79;108847;1279;21990;-81
2023/03/31 00:17:20;;;;;;;7.40;4.90;;;;;;;10.34;70.33;99446.02;108964;1279;22187;-82
2023/03/31 00:19:52;;;;;;;8.50;5.70;;;;;;;10.34;70.36;99450.89;108736;1283;21997;-80
2023/03/31 00:22:41;;;;;;;8.30;4.50;;;;;;;10.34;70.40;99452.98;108670;1283;23724;-81
2023/03/31 00:25:24;;;;;;;6.20;4.40;;;;;;;10.36;70.33;99450.11;108763;1283;23025;-79
2023/03/31 00:28:04;;;;;;;6.10;4.40;;;;;;;10.35;70.53;99448.92;108802;1283;21992;-81
2023/03/31 00:30:47;;;;;;;5.40;3.80;;;;;;;10.35;70.46;99445.44;108906;1283;21996;-80
2023/03/31 00:33:26;;;;;;;;;;;;;;;10.35;70.28;99450.00;108865;1283;22069;-82
2023/03/31 00:36:13;;;;;;;5.20;4.60;;;;;;;10.22;70.32;99453.73;108836;1283;21967;-81
2023/03/31 00:39:01;;;;;;;6.70;4.50;;;;;;;10.17;70.27;99454.69;108898;1283;21994;-79
2023/03/31 00:41:38;;;;;;;7.50;4.60;;;;;;;10.16;70.17;99453.34;108873;1283;22048;-81
2023/03/31 00:44:26;;;;;;;6.80;4.60;;;;;;;10.11;70.13;99445.27;109036;1276;21993;-79
2023/03/31 00:47:21;;;;;;;7.40;5.00;;;;;;;10.08;70.12;99443.31;109069;1276;21990;-80
2023/03/31 00:50:03;;;;;;;7.80;4.70;;;;;;;10.03;70.08;99440.60;109226;1276;21994;-80
2023/03/31 00:53:30;;;;;;;9.70;5.30;;;;;;;9.98;70.08;99440.37;108870;1280;21991;-80
2023/03/31 00:56:17;;;;;;;5.90;4.70;;;;;;;9.94;70.31;99438.48;108927;1280;23076;-79
2023/03/31 00:59:13;;;;;;;10.10;4.90;;;;;;;9.94;70.48;99439.16;108740;1286;23040;-80
2023/03/31 01:02:01;;;;;;;;;;;;;;;9.94;70.55;99436.91;108593;1286;21997;-78
2023/03/31 01:05:01;;;;;;;7.50;5.00;;;;;;;9.85;70.83;99436.80;108386;1286;23676;-79
2023/03/31 01:07:42;;;;;;;8.00;4.80;;;;;;;9.86;70.84;99430.85;108339;1289;23727;-79
2023/03/31 01:10:21;;;;;;;8.60;5.00;;;;;;;9.89;70.75;99429.29;108486;1286;23619;-80
2023/03/31 01:13:18;;;;;;;6.90;5.20;;;;;;;9.93;70.73;99428.56;108517;1286;23112;-80
2023/03/31 01:16:11;;;;;;;7.90;5.30;;;;;;;9.96;70.98;99434.16;108690;1282;23797;-79
2023/03/31 01:19:02;;;;;;;11.60;7.20;;;;;;;9.98;70.80;99431.29;108892;1281;22013;-79
2023/03/31 01:22:58;;;;;;;12.80;7.60;;;;;;;10.00;70.80;99433.31;108957;1281;22002;-80
2023/03/31 01:26:14;;;;;;;15.30;7.50;;;;;;;9.96;70.86;99431.23;108556;1288;22103;-80
2023/03/31 01:29:49;;;;;;;6.60;4.60;;;;;;;9.95;70.78;99434.41;108466;1287;22467;-79
2023/03/31 01:33:54;;;;;;;7.50;5.60;;;;;;;9.94;70.79;99434.61;108502;1288;22018;-80
2023/03/31 01:37:14;;;;;;;7.50;4.80;;;;;;;9.91;70.82;99433.88;108060;1294;23650;-79
2023/03/31 01:41:00;;;;;;;5.30;4.70;;;;;;;9.91;70.84;99426.63;108095;1294;23720;-80
2023/03/31 01:44:25;;;;;;;9.20;5.70;;;;;;;10.04;70.68;99421.65;108263;1289;544176;-80
2023/03/31 01:47:39;;;;;;;7.40;5.50;;;;;;;9.97;70.38;99426.52;110241;1268;21981;-79
2023/03/31 01:50:31;;;;;;;8.30;5.90;;;;;;;9.90;70.49;99429.10;109881;1268;23030;-79
2023/03/31 01:53:38;;;;;;;9.30;5.30;;;;;;;9.87;70.44;99429.79;110153;1269;21975;-80
2023/03/31 01:56:51;;;;;;;6.60;4.80;;;;;;;9.80;70.50;99428.55;109131;1262;2306563;-81
2023/03/31 02:00:10;;;;;;;7.70;4.80;;;;;;;9.75;70.36;99423.92;110849;1262;23179;-80
2023/03/31 02:03:11;;;;;;;;;;;;;;;9.69;70.50;99421.25;110782;1258;24001;-79
2023/03/31 02:06:16;;;;;;;6.40;3.80;;;;;;;9.57;70.66;99419.04;110923;1262;23423;-80
2023/03/31 02:09:12;;;;;;;6.70;3.90;;;;;;;9.53;70.63;99414.20;110496;1262;21966;-80
2023/03/31 02:12:03;;;;;;;8.10;4.50;;;;;;;9.51;70.48;99411.02;110919;1262;21987;-79
2023/03/31 02:14:54;;;;;;;4.90;4.10;;;;;;;9.49;70.60;99410.44;110746;1262;22466;-81
2023/03/31 02:17:41;;;;;;;6.50;4.60;;;;;;;9.49;70.58;99408.86;110969;1262;21994;-82
2023/03/31 02:20:31;;;;;;;5.90;3.80;;;;;;;9.47;70.59;99413.29;110902;1262;22433;-81
2023/03/31 02:23:17;;;;;;;5.60;4.30;;;;;;;9.46;70.58;99412.65;110951;1262;22042;-79
2023/03/31 02:26:11;;;;;;;6.00;4.00;;;;;;;9.44;70.55;99411.36;110662;1254;21949;-80
2023/03/31 02:28:58;;;;;;;7.40;4.40;;;;;;;9.42;70.64;99411.64;111543;1254;21980;-80
2023/03/31 02:31:54;;;;;;;7.80;3.90;;;;;;;9.40;70.63;99407.73;111492;1254;22279;-80
2023/03/31 02:34:43;;;;;;;8.50;4.60;;;;;;;9.34;70.63;99401.40;110828;1259;23001;-79
2023/03/31 02:37:29;;;;;;;7.50;3.80;;;;;;;9.28;70.60;99395.25;110763;1259;23715;-79
2023/03/31 02:40:18;;;;;;;5.40;3.70;;;;;;;9.25;70.71;99397.48;110459;1265;23096;-80
2023/03/31 02:43:01;;;;;;;4.90;4.10;;;;;;;9.26;70.80;99398.86;109867;1270;21985;-80
2023/03/31 02:45:49;;;;;;;5.60;4.30;;;;;;;9.23;70.80;99396.39;109183;1274;24654;-79
2023/03/31 02:48:40;;;;;;;6.00;4.10;;;;;;;9.20;70.84;99398.77;109459;1274;23343;-79
2023/03/31 02:51:45;;;;;;;6.60;4.40;;;;;;;9.16;70.80;99393.05;109366;1274;21964;-79
2023/03/31 02:54:45;;;;;;;8.80;7.40;;;;;;;9.11;70.85;99389.99;109465;1273;23199;-78
2023/03/31 02:57:23;;;;;;;9.50;6.30;;;;;;;9.07;70.97;99392.98;109548;1272;23644;-80
2023/03/31 03:00:44;;;;;;;7.20;5.30;;;;;;;9.06;70.88;99393.70;110527;1266;22173;-80
2023/03/31 03:04:08;;;;;;;10.40;6.30;;;;;;;9.05;71.06;99387.70;110705;1261;22433;-84
2023/03/31 03:07:21;;;;;;;7.40;5.80;;;;;;;9.05;71.11;99384.73;110920;1262;23705;-80
2023/03/31 03:09:59;;;;;;;7.20;5.30;;;;;;;9.08;71.22;99378.55;110828;1262;24290;-81
2023/03/31 03:12:44;;;;;;;6.30;4.20;;;;;;;9.13;71.14;99376.02;110997;1262;22806;-81
2023/03/31 03:16:09;;;;;;;7.50;4.30;;;;;;;9.15;71.17;99379.40;111050;1261;22998;-81
2023/03/31 03:18:56;;;;;;;6.40;4.00;;;;;;;9.17;71.30;99379.83;110838;1261;21958;-80
2023/03/31 03:21:50;;;;;;;7.30;4.90;;;;;;;9.20;71.29;99381.23;110817;1261;22219;-82
2023/03/31 03:24:33;;;;;;;16.10;14.50;;;;;;;9.23;71.24;99381.79;110914;1262;21964;-80
2023/03/31 03:27:20;;;;;;;8.60;7.10;;;;;;;9.28;71.30;99380.54;109918;1268;21981;-81
2023/03/31 03:30:01;;;;;;;8.20;5.50;;;;;;;9.33;71.25;99374.88;110184;1268;24416;-80
2023/03/31 03:32:40;;;;;;;5.60;4.80;;;;;;;9.38;71.12;99371.02;110166;1268;22446;-81
2023/03/31 03:35:21;;;;;;;9.50;5.20;;;;;;;9.42;71.08;99366.64;109461;1274;21978;-81
2023/03/31 03:37:59;;;;;;;7.30;5.30;;;;;;;9.46;71.12;99368.00;109454;1274;22742;-81
2023/03/31 03:40:31;;;;;;;8.30;4.90;;;;;;;9.51;71.10;99365.01;109781;1267;21969;-81
2023/03/31 03:43:26;;;;;;;7.10;4.80;;;;;;;9.54;70.99;99365.89;110310;1267;23018;-80
2023/03/31 03:46:20;;;;;;;7.40;4.80;;;;;;;9.52;70.67;99366.83;110747;1261;23128;-81
2023/03/31 03:49:04;;;;;;;6.40;5.10;;;;;;;9.50;70.67;99360.36;110898;1261;21991;-80
2023/03/31 03:51:46;;;;;;;10.30;7.20;;;;;;;9.54;70.87;99359.28;110273;1267;22130;-80
2023/03/31 03:54:37;;;;;;;17.50;15.00;;;;;;;9.57;70.87;99357.89;110905;1261;23676;-81
2023/03/31 03:57:40;;;;;;;8.00;6.40;;;;;;;9.61;70.61;99357.21;110943;1261;21964;-84
2023/03/31 04:03:34;;;;;;;12.20;7.30;;;;;;;9.54;70.52;99352.70;110218;1267;21981;-84
2023/03/31 04:06:13;;;;;;;11.10;8.70;;;;;;;9.57;70.71;99348.88;110008;1267;23164;-85
2023/03/31 04:08:49;;;;;;;11.40;9.40;;;;;;;9.60;70.54;99350.31;110197;1267;21971;-83
2023/03/31 04:11:33;;;;;;;11.30;9.20;;;;;;;9.65;70.56;99349.20;110226;1267;23689;-82
2023/03/31 04:14:24;;;;;;;14.50;9.10;;;;;;;9.70;70.56;99345.84;110204;1267;22511;-83
2023/03/31 04:17:36;;;;;;;11.40;9.60;;;;;;;9.72;70.33;99344.32;110735;1260;23779;-82
2023/03/31 04:20:15;;;;;;;8.80;6.60;;;;;;;9.72;70.16;99338.57;110667;1267;22977;-83
2023/03/31 04:22:54;;;;;;;8.40;6.30;;;;;;;9.72;70.04;99336.16;110436;1268;23592;-84
2023/03/31 04:25:37;;;;;;;9.50;6.70;;;;;;;9.73;69.98;99333.53;110394;1268;21975;-81
2023/03/31 04:28:41;;;;;;;12.90;7.80;;;;;;;9.71;69.75;99329.46;110579;1268;22473;-85
2023/03/31 04:31:32;;;;;;;10.20;7.30;;;;;;;9.70;69.86;99326.02;110447;1268;21991;-86
2023/03/31 04:34:50;;;;;;;11.60;7.20;;;;;;;9.70;69.91;99324.42;110606;1264;21970;-84
2023/03/31 04:37:39;;;;;;;10.90;7.30;;;;;;;9.72;69.82;99326.09;110160;1264;21959;-85
2023/03/31 04:40:40;;;;;;;12.00;7.90;;;;;;;9.75;69.67;99324.38;110752;1263;23091;-84
2023/03/31 04:43:15;;;;;;;15.80;10.00;;;;;;;9.79;69.73;99322.27;110748;1263;22891;-84
2023/03/31 04:45:50;;;;;;;18.10;8.80;;;;;;;9.86;69.56;99320.00;110510;1263;21975;-83
2023/03/31 04:48:33;;;;;;;11.50;6.90;;;;;;;9.85;69.44;99318.64;110869;1263;22735;-84
2023/03/31 04:51:26;;;;;;;15.20;9.80;;;;;;;9.83;69.29;99317.36;110549;1264;21963;-82
2023/03/31 04:54:09;;;;;;;18.00;10.90;;;;;;;9.83;69.13;99310.06;110498;1259;22085;-81
2023/03/31 04:56:53;;;;;;;12.30;9.50;;;;;;;9.79;69.12;99308.34;110555;1262;22829;-85
2023/03/31 04:59:28;;;;;;;10.50;8.30;;;;;;;9.78;68.93;99309.27;110184;1269;21982;-81
2023/03/31 05:02:02;;;;;;;;;;;;;;;9.77;68.76;99306.37;110377;1264;22993;-83
2023/03/31 05:04:46;;;;;;;14.60;8.80;;;;;;;9.66;68.90;99306.42;109947;1267;22112;-82
2023/03/31 05:07:36;;;;;;;10.90;7.70;;;;;;;9.64;68.92;99306.34;109977;1265;23013;-83
2023/03/31 05:10:09;;;;;;;14.90;7.90;;;;;;;9.67;69.11;99302.88;109831;1268;22000;-86
2023/03/31 05:12:50;;;;;;;12.20;5.80;;;;;;;9.73;69.14;99303.61;109458;1270;22182;-82
2023/03/31 05:15:28;;;;;;;9.30;5.60;;;;;;;9.79;69.07;99304.17;109878;1268;23662;-82
2023/03/31 05:18:16;;;;;;;12.40;6.30;;;;;;;9.84;69.08;99305.68;110789;1262;21961;-83
2023/03/31 05:21:30;;;;;;;8.80;5.80;;;;;;;9.87;68.86;99303.13;110898;1262;21995;-85
2023/03/31 05:24:15;;;;;;;12.90;6.20;;;;;;;9.89;68.77;99301.09;110624;1262;21950;-82
2023/03/31 05:26:54;;;;;;;10.00;5.20;;;;;;;9.91;68.64;99302.84;110124;1268;21974;-84
2023/03/31 05:29:36;;;;;;;7.60;4.50;;;;;;;9.93;68.55;99301.18;110133;1268;22016;-85
2023/03/31 05:32:24;;;;;;;8.60;5.10;;;;;;;10.00;68.76;99298.77;110750;1265;21999;-84
2023/03/31 05:35:26;;;;;;;8.60;4.80;;;;;;;10.06;68.53;99294.80;110502;1265;23709;-85
2023/03/31 05:38:51;;;;;;;;;;;;;;;;;;;;;
2023/03/31 05:42:19;;;;;;;;;;;;;;;;;;;;;
2023/03/31 05:45:39;;;;;;;13.20;7.40;;;;;;;10.27;68.28;99292.14;110680;1264;23590;-86
2023/03/31 05:48:26;;;;;;;12.40;6.50;;;;;;;10.40;68.41;99301.56;110265;1268;21983;-82
2023/03/31 05:51:46;;;;;;;13.80;7.10;;;;;;;10.56;68.08;99298.94;110881;1261;23147;-84
2023/03/31 05:54:40;;;;;;;9.90;6.20;;;;;;;10.65;67.91;99292.02;110944;1263;22120;-83
2023/03/31 05:57:49;;;;;;;10.60;5.70;;;;;;;10.70;67.31;99292.75;110687;1263;22390;-83
2023/03/31 06:01:09;;;;;;;12.90;7.20;;;;;;;10.70;67.04;99290.20;110840;1263;21975;-85
2023/03/31 06:04:43;;;;;;;;;;;;;;;;;;;;;
2023/03/31 06:08:06;;;;;;;9.80;6.40;;;;;;;10.69;66.89;99291.13;110651;1265;23120;-83
2023/03/31 06:11:26;;;;;;;12.80;6.70;;;;;;;10.76;66.87;99282.72;110554;1265;21989;-85
2023/03/31 06:14:47;;;;;;;9.00;6.80;;;;;;;10.88;66.76;99282.05;110816;1263;22015;-83
2023/03/31 06:17:42;;;;;;;9.90;6.40;;;;;;;10.97;66.28;99281.04;110779;1263;21956;-84
2023/03/31 06:20:35;;;;;;;12.90;10.50;;;;;;;10.99;65.64;99275.35;110912;1263;21985;-83
2023/03/31 06:23:17;;;;;;;14.10;8.60;;;;;;;11.02;65.73;99274.50;110570;1263;23586;-84
2023/03/31 06:26:07;;;;;;;13.30;7.60;;;;;;;11.09;65.65;99274.23;111026;1256;22007;-84
2023/03/31 06:29:08;;;;;;;11.80;7.80;;;;;;;11.09;65.02;99275.84;111313;1252;22044;-84
2023/03/31 06:32:05;;;;;;;12.70;8.30;;;;;;;11.12;65.30;99273.40;111356;1255;22006;-86
2023/03/31 06:35:19;;;;;;;15.00;8.50;;;;;;;11.21;65.32;99268.70;111528;1256;22940;-86
2023/03/31 06:39:43;;;;;;;36.20;24.00;;;;;;;11.34;65.21;99266.92;111150;1258;23689;-85
2023/03/31 06:46:22;;;;;;;13.60;8.30;;;;;;;11.50;64.46;99263.01;110019;1270;21984;-84
2023/03/31 06:50:15;;;;;;;;;;;;;;;;;;;;;
2023/03/31 06:53:26;;;;;;;10.40;8.20;;;;;;;11.63;64.17;99261.87;109676;1273;22035;-83
2023/03/31 06:57:52;;;;;;;14.20;9.30;;;;;;;11.62;63.46;99262.98;109742;1273;22841;-81
2023/03/31 07:01:01;;;;;;;;;;;;;;;;;;;;;
2023/03/31 07:04:01;;;;;;;10.00;7.80;;;;;;;11.72;63.30;99260.33;109178;1280;21989;-82
2023/03/31 07:06:56;;;;;;;13.80;9.10;;;;;;;11.78;63.03;99262.41;109211;1276;22077;-82
2023/03/31 07:09:42;;;;;;;13.30;8.70;;;;;;;11.86;63.23;99258.23;109412;1274;22980;-81
2023/03/31 07:12:40;;;;;;;13.00;7.90;;;;;;;11.87;62.58;99259.61;109398;1274;21980;-83
2023/03/31 07:15:29;;;;;;;12.70;7.40;;;;;;;11.92;62.56;99261.04;109849;1266;22996;-82
2023/03/31 07:18:16;;;;;;;13.30;6.70;;;;;;;11.99;62.41;99254.05;110604;1260;22012;-85
2023/03/31 07:21:52;;;;;;;12.00;6.80;;;;;;;12.06;62.34;99249.74;110781;1263;21977;-84
2023/03/31 07:24:46;;;;;;;17.10;10.30;;;;;;;12.17;62.26;99243.30;110559;1265;22434;-82
2023/03/31 07:27:49;;;;;;;7.40;5.90;;;;;;;12.25;61.70;99244.94;110470;1264;23049;-82
2023/03/31 07:30:52;;;;;;;15.30;9.00;;;;;;;12.28;61.64;99248.19;110349;1264;21975;-80
2023/03/31 07:34:30;;;;;;;12.30;6.30;;;;;;;12.40;61.49;99248.00;110258;1269;23679;-84
2023/03/31 07:38:04;;;;;;;11.80;7.00;;;;;;;12.42;60.95;99250.29;110304;1266;21978;-83
2023/03/31 07:40:51;;;;;;;12.30;5.80;;;;;;;12.50;60.90;99246.70;110587;1266;21985;-84
2023/03/31 07:43:55;;;;;;;12.50;7.20;;;;;;;12.60;60.81;99246.06;110248;1266;21988;-82
2023/03/31 07:46:57;;;;;;;10.50;5.70;;;;;;;12.71;60.56;99243.95;109772;1271;22016;-83
2023/03/31 07:49:58;;;;;;;12.00;5.70;;;;;;;12.81;60.36;99239.25;109711;1272;21999;-83
2023/03/31 07:52:55;;;;;;;10.20;6.40;;;;;;;12.91;60.00;99233.94;109667;1264;21973;-86
2023/03/31 07:55:45;;;;;;;12.40;7.30;;;;;;;12.93;59.85;99233.77;110268;1268;21961;-82
2023/03/31 07:58:51;;;;;;;9.90;7.00;;;;;;;12.97;59.40;99230.23;109670;1267;21976;-82
2023/03/31 08:01:57;;;;;;;13.90;7.40;;;;;;;13.03;59.46;99224.20;109693;1271;22892;-83
2023/03/31 08:04:41;;;;;;;11.00;7.50;;;;;;;13.17;59.55;99221.70;109291;1263;21982;-82
2023/03/31 08:07:22;;;;;;;14.60;7.20;;;;;;;13.27;58.75;99217.77;109403;1276;23190;-81
2023/03/31 08:10:04;;;;;;;9.70;6.90;;;;;;;13.26;58.44;99216.58;109368;1276;22292;-84
2023/03/31 08:13:12;;;;;;;10.00;6.30;;;;;;;13.27;58.50;99212.17;109708;1272;22004;-82
2023/03/31 08:16:22;;;;;;;8.50;6.20;;;;;;;13.31;58.37;99213.70;109997;1265;21987;-83
2023/03/31 08:18:56;;;;;;;13.30;8.30;;;;;;;13.41;58.45;99211.61;110070;1269;22016;-82
2023/03/31 08:21:40;;;;;;;19.50;12.90;;;;;;;13.51;58.35;99206.77;110172;1268;21989;-82
2023/03/31 08:24:29;;;;;;;13.40;10.70;;;;;;;13.51;57.47;99201.88;109824;1267;22076;-81
2023/03/31 08:27:07;;;;;;;14.70;11.20;;;;;;;13.53;57.80;99199.10;109885;1268;22736;-80
2023/03/31 08:29:54;;;;;;;;;;;;;;;;;;;;;
2023/03/31 08:32:44;;;;;;;16.00;11.90;;;;;;;13.95;58.05;99184.10;110241;1267;21989;-82
2023/03/31 08:36:07;;;;;;;;;;;;;;;14.27;58.04;99189.36;110349;1267;21942;-83
2023/03/31 08:38:48;;;;;;;14.30;8.90;;;;;;;14.46;57.47;99189.10;110477;1265;22068;-82
2023/03/31 08:41:59;;;;;;;11.00;7.70;;;;;;;14.62;56.69;99183.74;110169;1260;23035;-81
2023/03/31 08:44:58;;;;;;;12.40;8.00;;;;;;;14.74;55.90;99181.30;111360;1256;23680;-81
2023/03/31 08:47:52;;;;;;;14.10;8.20;;;;;;;14.82;55.22;99169.64;111491;1255;22486;-80
2023/03/31 08:50:53;;;;;;;10.10;6.40;;;;;;;14.83;54.55;99166.43;110925;1265;21982;-81
2023/03/31 08:53:47;;;;;;;8.20;5.10;;;;;;;14.80;54.12;99158.95;110499;1265;22748;-82
2023/03/31 08:56:42;;;;;;;10.10;6.10;;;;;;;14.76;54.17;99156.64;110705;1265;22034;-81
2023/03/31 08:59:43;;;;;;;10.90;6.00;;;;;;;14.82;54.61;99153.21;110716;1260;22532;-83
2023/03/31 09:03:15;;;;;;;9.20;6.00;;;;;;;14.97;54.64;99152.98;110817;1265;21978;-82
2023/03/31 09:07:13;;;;;;;9.60;6.10;;;;;;;15.03;54.04;99144.45;111026;1265;22959;-83
2023/03/31 09:10:50;;;;;;;10.70;6.30;;;;;;;15.09;53.91;99134.91;110431;1265;24073;-83
2023/03/31 09:14:04;;;;;;;11.40;7.00;;;;;;;15.21;53.75;99134.47;110586;1265;23700;-81
2023/03/31 09:17:11;;;;;;;11.10;6.50;;;;;;;15.33;53.46;99129.38;110455;1265;21963;-83
2023/03/31 09:20:39;;;;;;;12.20;7.00;;;;;;;15.51;53.79;99127.64;110485;1263;21837;-80
2023/03/31 09:24:19;;;;;;;8.90;5.10;;;;;;;15.68;52.78;99120.88;111156;1262;22006;-83
2023/03/31 09:27:16;;;;;;;9.60;5.80;;;;;;;15.76;52.53;99117.63;111040;1262;21962;-83
2023/03/31 09:30:22;;;;;;;14.50;6.20;;;;;;;15.99;52.90;99112.52;111030;1262;21981;-82
2023/03/31 09:33:37;;;;;;;12.50;6.50;;;;;;;16.29;52.57;99103.77;110964;1262;24589;-81
2023/03/31 09:36:23;;;;;;;11.20;5.80;;;;;;;16.58;51.44;99096.86;111195;1255;21971;-83
2023/03/31 09:39:14;;;;;;;8.60;5.00;;;;;;;16.58;50.35;99098.06;110394;1266;22005;-82
2023/03/31 09:42:12;;;;;;;;;;;;;;;16.63;50.13;99100.31;110509;1265;23123;-82
2023/03/31 09:44:49;;;;;;;8.70;4.30;;;;;;;16.58;50.29;99097.70;110425;1266;21984;-81
2023/03/31 09:47:46;;;;;;;7.20;3.90;;;;;;;16.74;50.66;99091.48;110902;1260;23586;-82
2023/03/31 09:50:36;;;;;;;8.90;5.20;;;;;;;16.97;50.57;99085.73;111108;1257;21969;-82
2023/03/31 09:53:52;;;;;;;9.90;4.50;;;;;;;17.18;50.07;99086.98;110963;1260;22114;-82
2023/03/31 09:56:52;;;;;;;7.60;4.00;;;;;;;17.26;49.13;99092.45;111402;1255;23618;-82
2023/03/31 09:59:51;;;;;;;;;;;;;;;;;;;;;
2023/03/31 10:03:10;;;;;;;12.70;4.30;;;;;;;16.87;48.53;99080.92;111658;1255;22393;-82
2023/03/31 10:06:20;;;;;;;8.10;4.60;;;;;;;16.78;48.94;99069.88;111576;1255;23015;-82
2023/03/31 10:09:12;;;;;;;8.30;3.90;;;;;;;16.75;49.02;99062.39;111564;1255;21970;-82
2023/03/31 10:12:31;;;;;;;9.90;4.50;;;;;;;16.79;49.37;99055.60;111516;1255;22713;-82
2023/03/31 10:15:36;;;;;;;8.00;4.90;;;;;;;16.86;49.23;99046.27;112274;1259;21987;-82
2023/03/31 10:18:37;;;;;;;7.20;4.30;;;;;;;16.93;49.23;99044.70;111604;1259;21983;-82
2023/03/31 10:21:39;;;;;;;11.20;5.00;;;;;;;17.06;49.12;99043.83;111306;1258;22275;-82
2023/03/31 10:24:45;;;;;;;9.60;5.90;;;;;;;17.10;48.79;99043.88;110628;1259;22145;-83
2023/03/31 10:27:34;;;;;;;7.50;4.20;;;;;;;17.18;48.82;99040.53;110300;1265;23602;-82
2023/03/31 10:30:45;;;;;;;9.10;4.70;;;;;;;17.24;48.63;99038.30;109803;1271;21993;-82
2023/03/31 10:34:18;;;;;;;11.30;6.60;;;;;;;17.17;48.36;99039.58;109778;1274;22014;-80
2023/03/31 10:37:25;;;;;;;8.80;5.00;;;;;;;17.08;48.21;99036.10;109583;1274;22755;-84
2023/03/31 10:40:30;;;;;;;8.00;4.70;;;;;;;16.98;47.95;99035.23;109674;1274;21985;-85
2023/03/31 10:43:23;;;;;;;;;;;;;;;16.75;47.72;99036.38;109102;1281;22068;-83
2023/03/31 10:46:03;;;;;;;9.60;4.70;;;;;;;16.45;48.21;99029.45;109298;1267;22007;-81
2023/03/31 10:49:40;;;;;;;9.60;5.40;;;;;;;16.32;48.86;99024.00;109565;1275;21982;-81
2023/03/31 10:57:02;;;;;;;7.30;3.60;;;;;;;16.31;49.36;99008.98;108969;1286;23243;-82
2023/03/31 11:00:52;;;;;;;11.70;6.90;;;;;;;16.50;48.81;99004.39;108600;1280;544150;-84
2023/03/31 11:04:42;;;;;;;11.40;5.40;;;;;;;16.50;49.26;99000.56;110729;1264;23038;-82
2023/03/31 11:08:06;;;;;;;;;;;;;;;;;;;;;
2023/03/31 11:11:28;;;;;;;9.40;5.00;;;;;;;16.63;48.85;98986.14;109828;1270;23038;-85
2023/03/31 11:14:34;;;;;;;9.40;6.80;;;;;;;16.79;48.69;98979.39;108370;1271;2199205;-82
2023/03/31 11:18:24;;;;;;;12.30;8.20;;;;;;;16.93;48.24;98971.84;110204;1270;23631;-82
2023/03/31 11:21:37;;;;;;;9.60;5.00;;;;;;;16.94;47.70;98967.91;109033;1281;22013;-83
2023/03/31 11:24:56;;;;;;;10.70;4.30;;;;;;;16.89;47.91;98961.88;108894;1281;22290;-83
2023/03/31 11:27:52;;;;;;;12.60;4.80;;;;;;;16.87;47.86;98954.45;108928;1281;22529;-84
2023/03/31 11:31:25;;;;;;;7.40;4.20;;;;;;;17.03;47.90;98944.44;108543;1286;544621;-83
2023/03/31 11:34:38;;;;;;;10.50;6.10;;;;;;;16.99;47.79;98940.22;111153;1260;22024;-82
2023/03/31 11:37:30;;;;;;;11.00;6.10;;;;;;;16.93;47.76;98941.98;110957;1260;21975;-83
2023/03/31 11:40:36;;;;;;;9.50;6.70;;;;;;;16.81;47.75;98940.84;111420;1256;21992;-82
2023/03/31 11:43:46;;;;;;;8.00;5.60;;;;;;;16.65;47.73;98937.15;111450;1256;23095;-82
2023/03/31 11:46:40;;;;;;;9.50;5.60;;;;;;;16.47;47.72;98934.84;107401;1254;23032;-83
2023/03/31 11:49:30;;;;;;;10.10;6.30;;;;;;;16.41;48.16;98931.09;111743;1243;21956;-83
2023/03/31 11:52:17;;;;;;;10.30;6.30;;;;;;;16.42;48.01;98929.96;111590;1254;21951;-83
2023/03/31 11:55:07;;;;;;;12.30;8.20;;;;;;;16.44;47.78;98923.86;111103;1259;21992;-82
2023/03/31 11:58:07;;;;;;;17.80;10.90;;;;;;;16.45;47.67;98923.57;111068;1259;22134;-83
2023/03/31 12:00:56;;;;;;;12.00;9.00;;;;;;;16.49;47.66;98920.58;111181;1259;21968;-84
2023/03/31 12:04:00;;;;;;;10.90;8.70;;;;;;;16.50;47.38;98913.84;111084;1259;21980;-83
2023/03/31 12:06:41;;;;;;;7.80;5.60;;;;;;;16.52;47.63;98903.67;111219;1259;23596;-84
2023/03/31 12:09:36;;;;;;;10.50;5.80;;;;;;;16.65;47.91;98893.04;110427;1266;22419;-83
2023/03/31 12:12:53;;;;;;;7.00;5.30;;;;;;;16.81;47.73;98886.84;110349;1260;21984;-83
2023/03/31 12:16:03;;;;;;;20.50;7.40;;;;;;;17.00;47.87;98883.20;110588;1264;21833;-84
2023/03/31 12:19:13;;;;;;;11.50;4.90;;;;;;;17.23;47.52;98876.58;109677;1261;22041;-83
2023/03/31 12:22:18;;;;;;;14.50;5.20;;;;;;;17.35;46.85;98869.36;109584;1273;22738;-82
2023/03/31 12:25:40;;;;;;;16.50;8.60;;;;;;;17.44;46.44;98856.79;109466;1273;22753;-82
2023/03/31 12:28:31;;;;;;;8.10;5.30;;;;;;;17.52;46.39;98851.19;109908;1266;23605;-82
2023/03/31 12:31:44;;;;;;;7.10;4.70;;;;;;;17.56;46.20;98845.02;110451;1266;22005;-82
2023/03/31 12:34:29;;;;;;;9.70;6.20;;;;;;;17.45;45.44;98841.38;110240;1266;22596;-83
2023/03/31 12:37:47;;;;;;;9.40;5.20;;;;;;;17.33;45.69;98837.60;110795;1259;21962;-80
2023/03/31 12:40:54;;;;;;;9.80;6.20;;;;;;;17.24;45.91;98835.40;111004;1264;22195;-83
2023/03/31 12:43:52;;;;;;;14.80;8.60;;;;;;;17.18;46.08;98825.94;110894;1258;21942;-83
2023/03/31 12:47:01;;;;;;;10.20;6.40;;;;;;;17.09;45.90;98825.84;110195;1270;23077;-83
2023/03/31 12:50:30;;;;;;;9.10;6.40;;;;;;;16.90;46.01;98825.39;110043;1270;22742;-83
2023/03/31 12:53:58;;;;;;;12.00;7.10;;;;;;;16.74;46.69;98817.44;110368;1270;21987;-82
2023/03/31 12:57:14;;;;;;;16.30;9.30;;;;;;;16.64;47.53;98811.70;110367;1267;21990;-82
2023/03/31 13:01:03;;;;;;;10.70;6.30;;;;;;;16.47;48.04;98809.48;110556;1265;21977;-82
2023/03/31 13:04:27;;;;;;;12.70;8.20;;;;;;;16.34;48.74;98801.83;110384;1265;21966;-82
2023/03/31 13:07:45;;;;;;;12.80;8.10;;;;;;;16.32;48.88;98794.98;110869;1260;23069;-81
2023/03/31 13:11:25;;;;;;;15.50;11.20;;;;;;;16.40;49.12;98788.80;110115;1268;21969;-82
2023/03/31 13:14:29;;;;;;;9.50;8.20;;;;;;;16.50;49.01;98774.73;110037;1271;22018;-82
2023/03/31 13:17:40;;;;;;;6.30;5.40;;;;;;;16.57;48.80;98768.88;110001;1271;23676;-83
2023/03/31 13:21:15;;;;;;;;;;;;;;;;;;;;;
2023/03/31 13:24:19;;;;;;;9.10;4.70;;;;;;;16.60;48.36;98751.41;109535;1276;22023;-84
2023/03/31 13:27:31;;;;;;;11.40;5.50;;;;;;;16.65;48.18;98750.77;109488;1276;23751;-83
2023/03/31 13:30:42;;;;;;;5.70;3.80;;;;;;;16.61;47.89;98746.20;109277;1279;21994;-83
2023/03/31 13:34:06;;;;;;;6.10;4.20;;;;;;;16.45;48.06;98739.19;109308;1279;21989;-82
2023/03/31 13:37:45;;;;;;;9.40;5.50;;;;;;;16.27;48.62;98736.20;109202;1277;21987;-83
2023/03/31 13:40:40;;;;;;;6.70;3.60;;;;;;;16.15;48.99;98729.52;109694;1271;21993;-83
2023/03/31 13:43:18;;;;;;;13.20;8.90;;;;;;;16.15;49.15;98722.88;109897;1271;22017;-83
2023/03/31 13:46:22;;;;;;;7.80;5.70;;;;;;;16.21;49.16;98719.69;109787;1271;22470;-83
2023/03/31 13:49:19;;;;;;;9.90;4.70;;;;;;;16.31;49.31;98719.02;110762;1261;21970;-82
2023/03/31 13:52:18;;;;;;;8.10;5.40;;;;;;;16.44;49.12;98712.84;111108;1261;22932;-83
2023/03/31 13:55:34;;;;;;;11.90;6.20;;;;;;;16.52;48.90;98711.08;111455;1254;21955;-83
2023/03/31 13:58:37;;;;;;;8.20;4.40;;;;;;;16.57;48.75;98704.48;111018;1261;21960;-84
2023/03/31 14:02:43;;;;;;;7.00;4.60;;;;;;;16.59;48.38;98700.05;111120;1261;21972;-81
2023/03/31 14:05:54;;;;;;;8.70;5.10;;;;;;;16.67;48.42;98692.36;110159;1268;21917;-82
2023/03/31 14:12:51;;;;;;;7.50;5.20;;;;;;;16.81;48.13;98673.86;109478;1275;21971;-84
2023/03/31 14:15:38;;;;;;;8.20;5.00;;;;;;;16.82;47.61;98671.00;109020;1276;21912;-83
2023/03/31 14:18:24;;;;;;;7.60;4.20;;;;;;;16.81;47.63;98668.44;109042;1281;21996;-81
2023/03/31 14:21:39;;;;;;;10.00;4.30;;;;;;;16.80;47.48;98662.73;109231;1281;21989;-84
2023/03/31 14:25:14;;;;;;;9.60;4.00;;;;;;;16.81;47.64;98652.77;109086;1281;22003;-82
2023/03/31 14:28:51;;;;;;;10.50;4.30;;;;;;;16.75;47.53;98648.38;109289;1276;21994;-83
2023/03/31 14:31:55;;;;;;;11.90;4.50;;;;;;;16.70;47.68;98645.30;109132;1277;23186;-82
2023/03/31 14:35:38;;;;;;;;;;;;;;;;;;;;;
2023/03/31 14:38:40;;;;;;;11.60;9.70;;;;;;;16.52;47.78;98643.23;108927;1285;22023;-83